Time;durP1;ratioP1;P1;durP2;ratioP2;P2;SDS_P1;SDS_P2;PMS_P1;PMS_P2;Temp;Humidity;BMP_temperature;BMP_pressure;BME280_temperature;BME280_humidity;BME280_pressure;Samples;Min_cycle;Max_cycle;Signal;HPM_P1;HPM_P2
2023/06/30 00:01:28;;;;;;;8.68;6.40;;;17.40;99.90;;;;;;5015828;28;20203;-65
2023/06/30 00:03:55;;;;;;;7.43;4.65;;;17.40;99.90;;;;;;5025559;28;20200;-65
2023/06/30 00:06:23;;;;;;;6.75;3.90;;;17.40;99.90;;;;;;5042763;28;20706;-66
2023/06/30 00:08:50;;;;;;;8.20;4.05;;;17.40;99.90;;;;;;5034448;28;20208;-65
2023/06/30 00:11:23;;;;;;;5.70;3.40;;;17.30;99.90;;;;;;5045375;28;20205;-65
2023/06/30 00:13:50;;;;;;;4.72;3.00;;;17.30;99.90;;;;;;5046069;28;20331;-65
2023/06/30 00:16:17;;;;;;;6.20;3.08;;;17.30;99.90;;;;;;5039327;28;20224;-65
2023/06/30 00:18:44;;;;;;;3.80;2.85;;;17.30;99.90;;;;;;5017624;28;20324;-65
2023/06/30 00:21:11;;;;;;;6.78;2.90;;;17.30;99.90;;;;;;5029469;28;20200;-65
2023/06/30 00:23:39;;;;;;;5.20;2.47;;;17.30;99.90;;;;;;5036536;28;20205;-65
2023/06/30 00:26:06;;;;;;;5.85;2.75;;;17.30;99.90;;;;;;5027549;28;21494;-66
2023/06/30 00:28:32;;;;;;;7.38;2.92;;;17.40;99.90;;;;;;5041743;28;20694;-66
2023/06/30 00:30:59;;;;;;;4.25;2.97;;;;;;;;;;5039151;28;20750;-65
2023/06/30 00:33:26;;;;;;;3.53;2.75;;;17.30;99.90;;;;;;5010917;28;21032;-65
2023/06/30 00:35:53;;;;;;;4.72;2.70;;;17.30;99.90;;;;;;5029726;28;20215;-66
2023/06/30 00:38:20;;;;;;;11.85;3.10;;;17.30;99.90;;;;;;5034990;28;20229;-66
2023/06/30 00:40:48;;;;;;;6.05;4.30;;;17.10;99.90;;;;;;5032755;28;20201;-66
2023/06/30 00:43:15;;;;;;;9.40;4.80;;;17.50;99.90;;;;;;5043629;28;20205;-65
2023/06/30 00:45:42;;;;;;;8.85;4.65;;;17.10;99.90;;;;;;5041566;28;20193;-65
2023/06/30 00:48:08;;;;;;;8.27;5.80;;;18.20;99.90;;;;;;5042065;28;20196;-65
2023/06/30 00:50:35;;;;;;;8.60;5.60;;;17.10;99.90;;;;;;5013071;28;20879;-65
2023/06/30 00:53:02;;;;;;;13.95;5.47;;;17.10;99.90;;;;;;5020563;28;20201;-65
2023/06/30 00:55:31;;;;;;;8.05;5.32;;;17.20;99.90;;;;;;5035017;28;20319;-65
2023/06/30 00:57:59;;;;;;;7.63;4.90;;;18.20;99.90;;;;;;5038222;28;20197;-65
2023/06/30 01:00:26;;;;;;;7.07;4.22;;;17.10;99.90;;;;;;5038115;28;20208;-65
2023/06/30 01:03:01;;;;;;;7.63;4.10;;;17.80;99.90;;;;;;5042571;28;20686;-65
2023/06/30 01:05:35;;;;;;;7.47;3.85;;;17.10;99.90;;;;;;5010449;28;23051;-65
2023/06/30 01:08:07;;;;;;;5.25;3.30;;;17.10;99.90;;;;;;5019247;28;20595;-66
2023/06/30 01:10:35;;;;;;;6.28;3.38;;;17.20;99.90;;;;;;5018865;28;20224;-65
2023/06/30 01:13:06;;;;;;;12.75;3.08;;;17.10;99.90;;;;;;5038889;28;20190;-65
2023/06/30 01:15:34;;;;;;;6.32;3.08;;;17.10;99.90;;;;;;5045513;28;20282;-65
2023/06/30 01:18:02;;;;;;;8.48;2.92;;;17.10;99.90;;;;;;5031120;28;20612;-66
2023/06/30 01:20:32;;;;;;;4.68;2.60;;;17.10;99.90;;;;;;5042829;28;20204;-65
2023/06/30 01:23:05;;;;;;;4.18;3.25;;;17.10;99.90;;;;;;5003002;28;20238;-66
2023/06/30 01:25:33;;;;;;;4.28;2.95;;;17.10;99.90;;;;;;5033245;28;20232;-66
2023/06/30 01:28:00;;;;;;;4.47;2.60;;;17.10;99.90;;;;;;5024334;28;20212;-66
2023/06/30 01:30:29;;;;;;;2.83;2.42;;;17.10;99.90;;;;;;5040420;28;20197;-66
2023/06/30 01:32:58;;;;;;;4.28;2.65;;;17.10;99.90;;;;;;5028041;28;20215;-65
2023/06/30 01:35:26;;;;;;;3.85;3.03;;;17.00;99.90;;;;;;5039808;28;20323;-66
2023/06/30 01:37:53;;;;;;;4.65;2.65;;;16.50;99.90;;;;;;5011848;28;20208;-66
2023/06/30 01:40:21;;;;;;;3.35;2.55;;;17.00;99.90;;;;;;5028733;28;20201;-66
2023/06/30 01:42:51;;;;;;;3.15;2.40;;;17.00;99.90;;;;;;5030185;28;20205;-66
2023/06/30 01:45:19;;;;;;;6.10;2.58;;;17.00;99.90;;;;;;5043243;28;21018;-66
2023/06/30 01:47:47;;;;;;;3.42;2.20;;;17.00;99.90;;;;;;5030238;28;20212;-66
2023/06/30 01:50:15;;;;;;;3.95;2.33;;;17.00;99.90;;;;;;5045019;28;20193;-66
2023/06/30 01:52:42;;;;;;;6.60;2.47;;;17.00;99.90;;;;;;5043444;28;20196;-66
2023/06/30 01:55:10;;;;;;;4.43;2.50;;;16.90;99.90;;;;;;5004133;28;20219;-66
2023/06/30 01:57:36;;;;;;;2.60;2.40;;;17.00;99.90;;;;;;5031913;28;20209;-65
2023/06/30 02:00:05;;;;;;;6.07;2.22;;;17.40;99.90;;;;;;5029563;28;20228;-66
2023/06/30 02:02:32;;;;;;;3.28;2.28;;;17.00;99.90;;;;;;5044268;28;20200;-65
2023/06/30 02:05:00;;;;;;;5.93;2.53;;;17.00;99.90;;;;;;5042471;28;20197;-66
2023/06/30 02:07:27;;;;;;;10.00;2.58;;;16.90;99.90;;;;;;5040599;28;20210;-68
2023/06/30 02:09:53;;;;;;;4.70;2.58;;;16.90;99.90;;;;;;5005380;28;20226;-66
2023/06/30 02:12:20;;;;;;;5.78;3.08;;;16.50;99.90;;;;;;5024806;28;20205;-66
2023/06/30 02:14:47;;;;;;;2.72;2.47;;;16.80;99.90;;;;;;5043755;28;20201;-66
2023/06/30 02:17:14;;;;;;;2.85;2.55;;;16.80;99.90;;;;;;5028128;28;20216;-66
2023/06/30 02:19:41;;;;;;;9.32;2.92;;;16.80;99.90;;;;;;5045723;28;20237;-65
2023/06/30 02:22:09;;;;;;;3.65;2.63;;;16.60;99.90;;;;;;5039071;28;20193;-65
2023/06/30 02:24:36;;;;;;;3.72;2.78;;;16.80;99.90;;;;;;5041611;28;20452;-66
2023/06/30 02:27:18;;;;;;;5.15;2.72;;;16.80;99.90;;;;;;4998956;28;20296;-65
2023/06/30 02:29:45;;;;;;;4.70;2.42;;;16.90;99.90;;;;;;5028861;28;20201;-66
2023/06/30 02:32:11;;;;;;;3.25;2.50;;;16.80;99.90;;;;;;5033349;28;20239;-66
2023/06/30 02:34:38;;;;;;;7.25;2.53;;;16.80;99.90;;;;;;5040548;28;20197;-66
2023/06/30 02:37:05;;;;;;;4.90;3.38;;;16.80;99.90;;;;;;5037865;28;20204;-66
2023/06/30 02:39:33;;;;;;;6.40;2.60;;;16.80;99.90;;;;;;5038950;28;20236;-66
2023/06/30 02:42:00;;;;;;;2.97;2.65;;;16.70;99.90;;;;;;4989215;28;21598;-66
2023/06/30 02:44:27;;;;;;;7.55;2.95;;;16.60;99.90;;;;;;5023763;28;20233;-66
2023/06/30 02:46:53;;;;;;;5.25;3.08;;;16.60;99.90;;;;;;5018923;28;20220;-65
2023/06/30 02:49:20;;;;;;;9.15;3.13;;;16.60;99.90;;;;;;5024439;28;20228;-66
2023/06/30 02:51:47;;;;;;;6.38;3.28;;;16.60;99.90;;;;;;5035692;28;20201;-66
2023/06/30 02:54:14;;;;;;;5.30;3.28;;;16.70;99.90;;;;;;5035297;28;20221;-65
2023/06/30 02:56:42;;;;;;;4.50;3.00;;;16.70;99.90;;;;;;5001290;28;20200;-65
2023/06/30 02:59:09;;;;;;;5.88;2.90;;;16.70;99.90;;;;;;5025793;28;20735;-66
2023/06/30 03:01:35;;;;;;;4.88;3.17;;;16.60;99.90;;;;;;5032422;28;20815;-66
2023/06/30 03:04:03;;;;;;;4.88;3.15;;;16.90;99.90;;;;;;5026778;28;20197;-66
2023/06/30 03:06:30;;;;;;;9.50;3.20;;;16.70;99.90;;;;;;5035837;28;20209;-66
2023/06/30 03:08:57;;;;;;;9.35;3.10;;;16.60;99.90;;;;;;5035228;28;20220;-65
2023/06/30 03:11:25;;;;;;;11.23;3.20;;;16.60;99.90;;;;;;4999778;28;20224;-65
2023/06/30 03:13:53;;;;;;;8.38;3.65;;;16.70;99.90;;;;;;5020832;28;20212;-66
2023/06/30 03:16:20;;;;;;;6.20;3.80;;;16.70;99.90;;;;;;5022253;28;20217;-66
2023/06/30 03:18:46;;;;;;;5.22;3.35;;;16.60;99.90;;;;;;5033957;28;20220;-65
2023/06/30 03:21:13;;;;;;;7.25;3.90;;;16.60;99.90;;;;;;5041424;28;20209;-65
2023/06/30 03:23:41;;;;;;;5.30;3.95;;;16.60;99.90;;;;;;5033771;28;20196;-66
2023/06/30 03:26:08;;;;;;;5.85;3.42;;;16.60;99.90;;;;;;5008632;28;20229;-66
2023/06/30 03:28:36;;;;;;;9.30;3.88;;;16.60;99.90;;;;;;5025381;28;20201;-65
2023/06/30 03:31:04;;;;;;;6.07;3.70;;;16.60;99.90;;;;;;5026469;28;20200;-66
2023/06/30 03:33:31;;;;;;;6.90;3.80;;;16.60;99.90;;;;;;5039467;28;20201;-65
2023/06/30 03:35:58;;;;;;;7.25;3.58;;;16.60;99.90;;;;;;5026096;28;20203;-66
2023/06/30 03:38:24;;;;;;;4.93;3.72;;;16.60;99.90;;;;;;5040867;28;20810;-65
2023/06/30 03:40:51;;;;;;;5.05;3.63;;;16.60;99.90;;;;;;5035398;28;20243;-65
2023/06/30 03:43:21;;;;;;;8.07;3.92;;;16.50;99.90;;;;;;5003381;28;20696;-65
2023/06/30 03:45:47;;;;;;;6.53;3.92;;;16.60;99.90;;;;;;5041541;28;20189;-65
2023/06/30 03:48:16;;;;;;;4.88;3.88;;;16.50;99.90;;;;;;5031814;28;20211;-65
2023/06/30 03:50:43;;;;;;;5.22;3.83;;;16.50;99.90;;;;;;5032544;28;20202;-65
2023/06/30 03:53:10;;;;;;;4.65;3.70;;;16.50;99.90;;;;;;5045834;28;20201;-65
2023/06/30 03:55:36;;;;;;;6.53;3.65;;;16.50;99.90;;;;;;5045179;28;20193;-65
2023/06/30 03:58:04;;;;;;;7.45;3.90;;;16.40;99.90;;;;;;5006994;28;20729;-66
2023/06/30 04:00:31;;;;;;;5.45;3.75;;;16.50;99.90;;;;;;5024435;28;20341;-65
2023/06/30 04:02:58;;;;;;;6.78;4.20;;;16.50;99.90;;;;;;4991939;28;20229;-65
2023/06/30 04:05:26;;;;;;;17.30;4.55;;;16.50;99.90;;;;;;5032774;28;20205;-65
2023/06/30 04:07:53;;;;;;;8.93;4.45;;;16.40;99.90;;;;;;5023867;28;20212;-65
2023/06/30 04:10:20;;;;;;;5.47;3.80;;;16.50;99.90;;;;;;5054049;28;20208;-65
2023/06/30 04:12:47;;;;;;;5.00;4.00;;;16.50;99.90;;;;;;5049379;28;20203;-65
2023/06/30 04:15:13;;;;;;;7.10;4.60;;;16.60;99.90;;;;;;5001802;28;20220;-66
2023/06/30 04:17:40;;;;;;;10.23;4.07;;;16.50;99.90;;;;;;5032353;28;20209;-65
2023/06/30 04:20:09;;;;;;;4.95;4.07;;;16.50;99.90;;;;;;5033080;28;20228;-65
2023/06/30 04:22:38;;;;;;;6.47;4.05;;;16.50;99.90;;;;;;5033420;28;21441;-65
2023/06/30 04:25:06;;;;;;;9.93;4.50;;;16.20;99.90;;;;;;5042526;28;21288;-65
2023/06/30 04:27:32;;;;;;;9.60;3.55;;;16.50;99.90;;;;;;5028350;28;20220;-66
2023/06/30 04:29:59;;;;;;;5.35;4.22;;;16.50;99.90;;;;;;5008212;28;20221;-66
2023/06/30 04:32:26;;;;;;;6.05;3.95;;;16.50;99.90;;;;;;5030986;28;20212;-66
2023/06/30 04:34:53;;;;;;;6.65;3.92;;;16.70;99.90;;;;;;5025960;28;20265;-66
2023/06/30 04:37:20;;;;;;;7.43;3.97;;;16.60;99.90;;;;;;5032791;28;20221;-66
2023/06/30 04:39:50;;;;;;;6.03;4.15;;;16.60;99.90;;;;;;5025033;28;20232;-66
2023/06/30 04:42:16;;;;;;;5.40;3.53;;;16.60;99.90;;;;;;5043949;28;20197;-66
2023/06/30 04:44:44;;;;;;;7.15;4.20;;;16.50;99.90;;;;;;5010367;28;20224;-66
2023/06/30 04:47:10;;;;;;;6.60;3.95;;;16.60;99.90;;;;;;5035553;28;20254;-65
2023/06/30 04:49:38;;;;;;;5.97;4.03;;;;;;;;;;5015409;28;20565;-66
2023/06/30 04:52:05;;;;;;;4.50;3.95;;;16.50;99.90;;;;;;5047470;28;20296;-65
2023/06/30 04:54:32;;;;;;;5.43;3.65;;;16.20;99.90;;;;;;5031217;28;20227;-66
2023/06/30 04:57:00;;;;;;;8.00;3.88;;;16.40;99.90;;;;;;5035380;28;20331;-65
2023/06/30 04:59:27;;;;;;;9.77;4.07;;;16.50;99.90;;;;;;5038417;28;20232;-66
2023/06/30 05:01:54;;;;;;;7.07;4.03;;;16.40;99.90;;;;;;4979189;28;21002;-66
2023/06/30 05:04:21;;;;;;;6.18;4.18;;;16.30;99.90;;;;;;5021202;28;20228;-65
2023/06/30 05:06:47;;;;;;;6.93;4.32;;;16.30;99.90;;;;;;5027995;28;20670;-65
2023/06/30 05:09:14;;;;;;;4.88;3.83;;;16.30;99.90;;;;;;5024502;28;20222;-65
2023/06/30 05:11:41;;;;;;;14.05;3.92;;;16.40;99.90;;;;;;5019297;28;20745;-65
2023/06/30 05:14:09;;;;;;;6.63;3.92;;;16.40;99.90;;;;;;5025450;28;20441;-65
2023/06/30 05:16:36;;;;;;;10.38;4.20;;;16.40;99.90;;;;;;5006653;28;20520;-65
2023/06/30 05:19:03;;;;;;;7.75;3.90;;;15.60;99.90;;;;;;5010352;28;20201;-65
2023/06/30 05:21:29;;;;;;;5.28;4.50;;;16.40;99.90;;;;;;5026354;28;20224;-66
2023/06/30 05:23:56;;;;;;;10.82;4.05;;;16.50;99.90;;;;;;5038436;28;20839;-65
2023/06/30 05:26:23;;;;;;;7.85;4.20;;;16.40;99.90;;;;;;5040365;28;20298;-65
2023/06/30 05:28:50;;;;;;;8.50;4.55;;;16.40;99.90;;;;;;5040113;28;20209;-65
2023/06/30 05:31:18;;;;;;;8.02;4.10;;;16.50;99.90;;;;;;5014381;28;20401;-65
2023/06/30 05:33:45;;;;;;;7.95;4.43;;;16.50;99.90;;;;;;5030364;28;20250;-65
2023/06/30 05:36:12;;;;;;;5.53;4.68;;;16.50;99.90;;;;;;5023626;28;20204;-66
2023/06/30 05:38:39;;;;;;;6.30;4.32;;;16.60;99.90;;;;;;5035974;28;20221;-65
2023/06/30 05:41:05;;;;;;;8.60;4.28;;;16.50;99.90;;;;;;5020867;28;20225;-65
2023/06/30 05:43:32;;;;;;;10.65;4.70;;;16.50;99.90;;;;;;5019755;28;20291;-66
2023/06/30 05:45:59;;;;;;;7.50;4.50;;;16.60;99.90;;;;;;5026973;28;20211;-66
2023/06/30 05:48:27;;;;;;;12.10;4.47;;;16.70;99.90;;;;;;4994632;28;20221;-65
2023/06/30 05:50:54;;;;;;;6.35;4.28;;;16.80;99.90;;;;;;5030743;28;20241;-66
2023/06/30 05:53:21;;;;;;;10.27;4.10;;;16.60;99.90;;;;;;5021374;28;20221;-66
2023/06/30 05:55:48;;;;;;;8.13;4.30;;;;;;;;;;5038879;28;20668;-65
2023/06/30 05:58:15;;;;;;;7.20;4.30;;;16.80;99.90;;;;;;5014306;28;20212;-66
2023/06/30 06:00:42;;;;;;;9.90;4.93;;;16.90;99.90;;;;;;5032116;28;20231;-67
2023/06/30 06:03:09;;;;;;;6.63;3.80;;;16.90;99.90;;;;;;4997541;28;20208;-66
2023/06/30 06:05:37;;;;;;;6.70;3.70;;;16.90;99.90;;;;;;5026970;28;20211;-66
2023/06/30 06:08:04;;;;;;;7.10;3.90;;;16.90;99.90;;;;;;5024078;28;20689;-65
2023/06/30 06:10:31;;;;;;;8.63;3.70;;;16.80;99.90;;;;;;5034089;28;20227;-66
2023/06/30 06:12:57;;;;;;;11.90;3.80;;;16.90;99.90;;;;;;5020547;28;20248;-65
2023/06/30 06:15:24;;;;;;;6.47;3.40;;;17.00;99.90;;;;;;5039272;28;20196;-66
2023/06/30 06:17:51;;;;;;;6.32;3.50;;;17.00;99.90;;;;;;5010177;28;22575;-65
2023/06/30 06:20:18;;;;;;;7.28;3.10;;;17.00;99.90;;;;;;5021085;28;20682;-65
2023/06/30 06:22:46;;;;;;;7.75;3.63;;;16.50;99.90;;;;;;5020195;28;20196;-66
2023/06/30 06:25:13;;;;;;;4.63;3.25;;;17.20;99.90;;;;;;5031089;28;20236;-66
2023/06/30 06:27:39;;;;;;;5.45;3.10;;;17.10;99.90;;;;;;5024931;28;20205;-66
2023/06/30 06:30:07;;;;;;;7.53;3.35;;;17.10;99.90;;;;;;5025140;28;20216;-65
2023/06/30 06:32:40;;;;;;;5.35;3.25;;;18.40;99.90;;;;;;5010698;28;20248;-66
2023/06/30 06:35:08;;;;;;;7.57;3.25;;;17.00;99.90;;;;;;5017508;28;20354;-65
2023/06/30 06:37:35;;;;;;;8.68;3.17;;;17.10;99.90;;;;;;5020198;28;20205;-66
2023/06/30 06:40:03;;;;;;;6.20;3.08;;;17.10;99.90;;;;;;5043312;28;20255;-65
2023/06/30 06:42:30;;;;;;;7.30;3.25;;;;;;;;;;5023684;28;20200;-66
2023/06/30 06:44:57;;;;;;;7.88;3.78;;;17.20;99.90;;;;;;5043286;28;20205;-66
2023/06/30 06:48:01;;;;;;;7.32;2.80;;;17.20;99.90;;;;;;5039390;28;20205;-65
2023/06/30 06:50:28;;;;;;;5.13;2.75;;;17.20;99.90;;;;;;4992399;28;20244;-66
2023/06/30 06:52:54;;;;;;;4.93;2.80;;;17.20;99.90;;;;;;5033631;28;20205;-65
2023/06/30 06:55:22;;;;;;;3.22;2.20;;;17.30;99.90;;;;;;5022917;28;20257;-66
2023/06/30 06:57:49;;;;;;;11.63;3.13;;;17.20;99.90;;;;;;5037358;28;20201;-65
2023/06/30 07:00:17;;;;;;;4.28;2.67;;;17.30;99.90;;;;;;5023727;28;20233;-65
2023/06/30 07:02:44;;;;;;;6.93;3.10;;;17.30;99.90;;;;;;5036165;28;20196;-65
2023/06/30 07:05:11;;;;;;;4.53;1.98;;;17.40;99.90;;;;;;4995334;28;20213;-64
2023/06/30 07:07:38;;;;;;;5.97;2.40;;;17.40;99.90;;;;;;5025325;28;20204;-65
2023/06/30 07:10:06;;;;;;;2.58;1.90;;;17.40;99.90;;;;;;5033283;28;20212;-65
2023/06/30 07:12:34;;;;;;;3.55;2.15;;;17.40;99.90;;;;;;5034560;28;20203;-65
2023/06/30 07:15:02;;;;;;;3.60;1.90;;;17.40;99.90;;;;;;5020830;28;20209;-65
2023/06/30 07:17:29;;;;;;;3.67;1.92;;;17.50;99.90;;;;;;5050173;28;20204;-65
2023/06/30 07:19:55;;;;;;;6.60;1.95;;;17.40;99.90;;;;;;5009969;28;20201;-65
2023/06/30 07:22:22;;;;;;;3.10;1.80;;;17.50;99.90;;;;;;5037677;28;20202;-65
2023/06/30 07:24:49;;;;;;;3.40;1.90;;;17.50;99.90;;;;;;5018671;28;20229;-65
2023/06/30 07:27:16;;;;;;;3.85;1.63;;;17.50;99.90;;;;;;5032892;28;20208;-64
2023/06/30 07:29:44;;;;;;;3.53;2.25;;;17.50;99.90;;;;;;5031591;28;20212;-65
2023/06/30 07:32:11;;;;;;;2.45;1.73;;;17.60;99.90;;;;;;5020045;28;20205;-65
2023/06/30 07:34:37;;;;;;;5.53;2.00;;;17.60;99.90;;;;;;5029616;28;20197;-65
2023/06/30 07:37:05;;;;;;;6.88;1.92;;;17.30;99.90;;;;;;5023656;28;21233;-65
2023/06/30 07:39:32;;;;;;;2.50;1.95;;;17.30;99.90;;;;;;5038935;28;20209;-64
2023/06/30 07:41:58;;;;;;;6.13;1.67;;;17.40;99.90;;;;;;5038074;28;20327;-64
2023/06/30 07:44:25;;;;;;;3.15;2.03;;;17.30;99.90;;;;;;5038704;28;20204;-64
2023/06/30 07:46:53;;;;;;;2.10;1.35;;;17.50;99.90;;;;;;5032195;28;20209;-64
2023/06/30 07:49:21;;;;;;;4.80;1.65;;;17.50;99.90;;;;;;5039295;28;20233;-64
2023/06/30 07:51:48;;;;;;;1.77;1.52;;;17.60;99.90;;;;;;5004647;28;20262;-65
2023/06/30 07:54:16;;;;;;;5.13;1.83;;;17.60;99.90;;;;;;5031553;28;20717;-64
2023/06/30 07:56:43;;;;;;;5.47;2.08;;;17.90;99.90;;;;;;5035226;28;20201;-65
2023/06/30 07:59:10;;;;;;;2.03;1.60;;;17.90;99.90;;;;;;5037168;28;20211;-64
2023/06/30 08:01:36;;;;;;;3.35;1.65;;;18.00;99.90;;;;;;5025166;28;20490;-64
2023/06/30 08:04:05;;;;;;;2.40;1.60;;;17.90;99.90;;;;;;5018621;28;20205;-64
2023/06/30 08:06:31;;;;;;;3.78;1.30;;;17.90;99.90;;;;;;5013763;28;20209;-64
2023/06/30 08:08:59;;;;;;;2.55;1.63;;;17.90;99.90;;;;;;5032850;28;20209;-64
2023/06/30 08:11:26;;;;;;;3.30;1.80;;;17.90;99.90;;;;;;5029300;28;20220;-64
2023/06/30 08:13:53;;;;;;;3.22;1.60;;;17.90;99.90;;;;;;5028187;28;20311;-64
2023/06/30 08:16:20;;;;;;;2.38;1.60;;;17.90;99.90;;;;;;5027192;28;20227;-64
2023/06/30 08:18:46;;;;;;;2.75;1.58;;;18.10;99.90;;;;;;5019305;28;20224;-64
2023/06/30 08:21:14;;;;;;;4.43;1.60;;;18.00;99.90;;;;;;4990426;28;20876;-64
2023/06/30 08:23:41;;;;;;;4.93;1.75;;;18.20;99.90;;;;;;5008967;28;20232;-64
2023/06/30 08:26:08;;;;;;;2.65;1.30;;;18.20;99.90;;;;;;5023574;28;20693;-65
2023/06/30 08:28:35;;;;;;;10.55;2.10;;;18.30;99.90;;;;;;5029297;28;20216;-64
2023/06/30 08:31:02;;;;;;;4.38;1.55;;;18.20;99.90;;;;;;5027735;28;20229;-64
2023/06/30 08:33:29;;;;;;;3.80;1.55;;;18.20;99.90;;;;;;5040025;28;20220;-64
2023/06/30 08:35:56;;;;;;;2.88;1.30;;;19.60;99.90;;;;;;5017293;28;20202;-64
2023/06/30 08:38:24;;;;;;;2.75;1.50;;;18.30;99.90;;;;;;5021271;28;20633;-64
2023/06/30 08:40:51;;;;;;;1.88;1.30;;;18.40;99.90;;;;;;5040860;28;20225;-64
2023/06/30 08:43:22;;;;;;;5.00;1.52;;;18.40;99.90;;;;;;5022222;28;20206;-64
2023/06/30 08:45:52;;;;;;;1.88;1.33;;;18.40;99.90;;;;;;5031945;28;20224;-63
2023/06/30 08:48:20;;;;;;;2.17;1.38;;;18.40;99.90;;;;;;5041222;28;20402;-64
2023/06/30 08:50:48;;;;;;;2.90;1.55;;;18.40;99.90;;;;;;5032514;28;20225;-64
2023/06/30 08:53:18;;;;;;;7.00;1.63;;;18.40;99.90;;;;;;5010913;28;20691;-64
2023/06/30 08:55:47;;;;;;;2.63;1.50;;;18.40;99.90;;;;;;5033062;28;20208;-64
2023/06/30 08:58:14;;;;;;;2.55;1.65;;;18.50;99.90;;;;;;5017605;28;22833;-63
2023/06/30 09:00:41;;;;;;;7.28;1.30;;;18.50;99.90;;;;;;5037500;28;20233;-63
2023/06/30 09:03:08;;;;;;;3.58;1.45;;;18.40;99.90;;;;;;5037029;28;20198;-64
2023/06/30 09:05:37;;;;;;;1.70;1.50;;;18.40;99.90;;;;;;5041289;28;20196;-64
2023/06/30 09:08:11;;;;;;;1.92;1.35;;;18.40;99.90;;;;;;5003337;28;20292;-64
2023/06/30 09:10:38;;;;;;;2.53;1.27;;;18.40;99.90;;;;;;5032378;28;20716;-64
2023/06/30 09:13:07;;;;;;;3.40;1.30;;;18.40;99.90;;;;;;5000384;28;20418;-64
2023/06/30 09:15:34;;;;;;;4.43;1.60;;;18.40;99.90;;;;;;5038791;28;20223;-64
2023/06/30 09:18:01;;;;;;;4.28;1.52;;;18.40;99.90;;;;;;5025549;28;20204;-64
2023/06/30 09:20:28;;;;;;;4.00;1.52;;;18.40;99.90;;;;;;5038657;28;20212;-64
2023/06/30 09:22:56;;;;;;;8.43;1.52;;;18.40;99.90;;;;;;5008435;28;20849;-64
2023/06/30 09:25:41;;;;;;;2.90;1.30;;;18.40;99.90;;;;;;5021767;28;20243;-64
2023/06/30 09:28:14;;;;;;;2.10;1.90;;;18.40;99.90;;;;;;5017606;28;20849;-64
2023/06/30 09:30:44;;;;;;;4.13;1.92;;;18.40;99.90;;;;;;5037493;28;20789;-64
2023/06/30 09:33:14;;;;;;;6.78;1.80;;;18.50;99.90;;;;;;5006094;28;20196;-64
2023/06/30 09:35:42;;;;;;;2.53;1.40;;;18.40;99.90;;;;;;5036079;28;20396;-64
2023/06/30 09:38:11;;;;;;;1.40;1.30;;;18.40;99.90;;;;;;5022046;28;20217;-64
2023/06/30 09:40:38;;;;;;;1.70;1.35;;;18.50;99.90;;;;;;5000184;28;20255;-64
2023/06/30 09:43:07;;;;;;;1.58;1.48;;;18.60;99.90;;;;;;5039208;28;20201;-64
2023/06/30 09:45:35;;;;;;;3.53;1.00;;;18.70;99.90;;;;;;5022527;28;20540;-64
2023/06/30 09:48:02;;;;;;;1.70;1.30;;;18.70;99.90;;;;;;5030626;28;20563;-64
2023/06/30 09:50:31;;;;;;;1.92;1.33;;;18.70;99.90;;;;;;5039504;28;20701;-64
2023/06/30 09:52:59;;;;;;;3.38;1.40;;;18.70;99.90;;;;;;5042961;28;20208;-64
2023/06/30 09:55:26;;;;;;;5.07;1.80;;;18.80;99.90;;;;;;5001209;28;20602;-64
2023/06/30 09:57:56;;;;;;;2.67;1.40;;;18.80;99.90;;;;;;5037136;28;20208;-64
2023/06/30 10:00:25;;;;;;;6.05;1.45;;;18.70;99.90;;;;;;5023786;28;20496;-64
2023/06/30 10:03:03;;;;;;;3.97;1.52;;;18.70;99.90;;;;;;5027199;28;20855;-64
2023/06/30 10:05:30;;;;;;;2.90;1.40;;;18.80;99.90;;;;;;5035592;28;20576;-64
2023/06/30 10:07:58;;;;;;;1.73;1.30;;;18.80;99.90;;;;;;5015895;28;20224;-64
2023/06/30 10:10:26;;;;;;;7.47;2.15;;;18.80;99.90;;;;;;4979318;28;20575;-64
2023/06/30 10:12:53;;;;;;;6.47;1.60;;;19.00;99.90;;;;;;5021459;28;20855;-64
2023/06/30 10:15:20;;;;;;;2.95;1.80;;;19.00;99.90;;;;;;5019597;28;20205;-64
2023/06/30 10:17:49;;;;;;;2.00;1.80;;;19.20;99.90;;;;;;5016468;28;20297;-64
2023/06/30 10:20:17;;;;;;;4.32;1.75;;;19.40;99.90;;;;;;5038101;28;20189;-64
2023/06/30 10:22:45;;;;;;;2.83;1.40;;;19.40;99.90;;;;;;5024357;28;20659;-64
2023/06/30 10:25:14;;;;;;;5.78;1.70;;;19.50;99.90;;;;;;5004141;28;20224;-64
2023/06/30 10:27:42;;;;;;;4.10;1.75;;;19.60;99.90;;;;;;5016818;28;22889;-64
2023/06/30 10:30:10;;;;;;;2.92;1.20;;;19.60;99.90;;;;;;5025290;28;20271;-64
2023/06/30 10:32:37;;;;;;;3.72;1.50;;;19.60;99.90;;;;;;5015609;28;20734;-64
2023/06/30 10:35:05;;;;;;;1.55;1.40;;;19.30;99.90;;;;;;5020261;28;20204;-64
2023/06/30 10:37:33;;;;;;;3.50;1.70;;;19.30;99.90;;;;;;5028077;28;20219;-64
2023/06/30 10:40:00;;;;;;;3.47;1.33;;;19.20;99.90;;;;;;5031731;28;20772;-64
2023/06/30 10:42:27;;;;;;;2.40;1.52;;;19.20;99.90;;;;;;4997187;28;20255;-64
2023/06/30 10:44:59;;;;;;;1.92;1.27;;;19.40;99.90;;;;;;5040191;28;21182;-64
2023/06/30 10:47:28;;;;;;;5.40;1.38;;;19.40;99.90;;;;;;5016947;28;20414;-64
2023/06/30 10:49:55;;;;;;;3.08;1.45;;;19.40;99.90;;;;;;5029275;28;20278;-64
2023/06/30 10:52:26;;;;;;;4.28;1.27;;;19.60;99.90;;;;;;5038730;28;20194;-64
2023/06/30 10:54:55;;;;;;;2.65;1.45;;;19.60;99.90;;;;;;5034778;28;20205;-64
2023/06/30 10:57:25;;;;;;;2.03;1.40;;;19.80;99.90;;;;;;4989784;28;20247;-64
2023/06/30 11:00:05;;;;;;;3.40;1.50;;;19.90;99.90;;;;;;5018457;28;20224;-64
2023/06/30 11:02:33;;;;;;;1.20;1.10;;;19.90;99.90;;;;;;5004819;28;21320;-64
2023/06/30 11:05:19;;;;;;;3.55;1.50;;;19.80;99.90;;;;;;5026186;28;20231;-64
2023/06/30 11:07:48;;;;;;;3.17;1.85;;;19.70;99.90;;;;;;5027636;28;21291;-63
2023/06/30 11:10:29;;;;;;;3.17;1.50;;;19.30;99.90;;;;;;5007790;28;20860;-63
2023/06/30 11:12:57;;;;;;;6.25;2.95;;;19.30;99.90;;;;;;5003128;28;20225;-64
2023/06/30 11:15:46;;;;;;;3.92;2.30;;;19.20;99.90;;;;;;5028799;28;20321;-64
2023/06/30 11:18:14;;;;;;;3.00;1.95;;;19.40;99.90;;;;;;4995220;28;20201;-64
2023/06/30 11:20:59;;;;;;;7.63;3.38;;;19.70;99.90;;;;;;5024555;28;20200;-64
2023/06/30 11:23:28;;;;;;;2.42;1.40;;;19.80;99.90;;;;;;5007456;28;20579;-64
2023/06/30 11:25:58;;;;;;;7.50;2.10;;;20.00;99.90;;;;;;5008536;28;20349;-63
2023/06/30 11:28:26;;;;;;;5.72;2.22;;;19.80;99.90;;;;;;4982836;28;20288;-63
2023/06/30 11:30:53;;;;;;;6.70;2.60;;;19.70;99.90;;;;;;5027903;28;20500;-63
2023/06/30 11:33:20;;;;;;;1.50;1.23;;;19.50;99.90;;;;;;4998666;28;20551;-64
2023/06/30 11:35:52;;;;;;;2.97;1.50;;;19.40;99.90;;;;;;5027495;28;20224;-63
2023/06/30 11:38:19;;;;;;;1.88;1.27;;;19.40;99.90;;;;;;5018661;28;20341;-64
2023/06/30 11:40:46;;;;;;;1.95;1.35;;;19.40;99.90;;;;;;5029061;28;21753;-64
2023/06/30 11:43:15;;;;;;;3.17;1.42;;;19.60;99.90;;;;;;4992897;28;20228;-64
2023/06/30 11:45:42;;;;;;;1.85;1.20;;;19.70;99.90;;;;;;5035430;28;21069;-63
2023/06/30 11:48:09;;;;;;;2.85;1.23;;;19.80;99.90;;;;;;5001874;28;20217;-64
2023/06/30 11:50:36;;;;;;;3.58;1.50;;;19.80;99.90;;;;;;5021851;28;20232;-64
2023/06/30 11:53:02;;;;;;;2.35;1.42;;;20.00;99.90;;;;;;5034357;28;20201;-64
2023/06/30 11:55:29;;;;;;;4.45;1.30;;;19.90;99.90;;;;;;5033527;28;20218;-64
2023/06/30 11:57:56;;;;;;;1.77;1.20;;;19.80;99.90;;;;;;5012324;28;20209;-64
2023/06/30 12:00:25;;;;;;;2.78;1.30;;;19.80;99.90;;;;;;5042184;28;20836;-64
2023/06/30 12:02:52;;;;;;;1.60;1.50;;;19.70;99.90;;;;;;5029722;28;20231;-64
2023/06/30 12:05:21;;;;;;;2.97;1.42;;;19.80;99.90;;;;;;5019540;28;20746;-64
2023/06/30 12:07:50;;;;;;;1.92;1.23;;;19.80;99.90;;;;;;5028364;28;20201;-64
2023/06/30 12:10:17;;;;;;;3.88;1.30;;;19.80;99.90;;;;;;5036189;28;20197;-64
2023/06/30 12:12:44;;;;;;;3.60;1.33;;;19.80;99.90;;;;;;5010153;28;20216;-64
2023/06/30 12:15:13;;;;;;;1.80;1.20;;;19.80;99.90;;;;;;5036201;28;20221;-64
2023/06/30 12:17:43;;;;;;;2.97;1.50;;;20.10;99.90;;;;;;5044663;28;20212;-64
2023/06/30 12:20:11;;;;;;;5.43;1.40;;;20.20;99.90;;;;;;5023828;28;20800;-64
2023/06/30 12:22:41;;;;;;;3.50;1.20;;;20.20;99.90;;;;;;5021509;28;20481;-64
2023/06/30 12:25:11;;;;;;;4.28;1.30;;;20.10;99.90;;;;;;5026534;28;20328;-64
2023/06/30 12:27:41;;;;;;;11.02;1.27;;;19.90;99.90;;;;;;5037796;28;20232;-64
2023/06/30 12:30:15;;;;;;;2.40;1.25;;;19.80;99.90;;;;;;5003428;28;20213;-64
2023/06/30 12:32:43;;;;;;;1.92;1.40;;;19.80;99.90;;;;;;5034777;28;20254;-64
2023/06/30 12:35:10;;;;;;;1.67;1.40;;;19.60;99.90;;;;;;5021259;28;20208;-64
2023/06/30 12:37:38;;;;;;;2.38;1.60;;;19.60;99.90;;;;;;5031760;28;20221;-64
2023/06/30 12:40:07;;;;;;;6.00;1.42;;;19.60;99.90;;;;;;5026412;28;20248;-64
2023/06/30 12:42:34;;;;;;;2.25;1.45;;;19.80;99.90;;;;;;5020027;28;20236;-63
2023/06/30 12:45:01;;;;;;;4.45;1.38;;;19.90;99.90;;;;;;4999805;28;20673;-64
2023/06/30 12:47:28;;;;;;;3.50;1.17;;;20.10;99.90;;;;;;5007867;28;20221;-64
2023/06/30 12:49:56;;;;;;;1.45;1.27;;;20.20;99.90;;;;;;5003497;28;20227;-64
2023/06/30 12:52:22;;;;;;;3.17;1.50;;;20.20;99.90;;;;;;5018742;28;20641;-63